sensor_id;sensor_type;location;lat;lon;timestamp;P1;durP1;ratioP1;P2;durP2;ratioP2
18899;SDS011;9582;52.018;6.306;2022-08-20T00:00:05;12.98;;;10.95;;
18899;SDS011;9582;52.018;6.306;2022-08-20T00:02:37;12.48;;;10.80;;
18899;SDS011;9582;52.018;6.306;2022-08-20T00:05:05;13.90;;;10.88;;
18899;SDS011;9582;52.018;6.306;2022-08-20T00:07:32;12.57;;;10.20;;
18899;SDS011;9582;52.018;6.306;2022-08-20T00:09:58;11.40;;;10.20;;
18899;SDS011;9582;52.018;6.306;2022-08-20T00:12:26;11.68;;;10.43;;
18899;SDS011;9582;52.018;6.306;2022-08-20T00:14:53;13.15;;;10.85;;
18899;SDS011;9582;52.018;6.306;2022-08-20T00:17:20;12.95;;;11.32;;
18899;SDS011;9582;52.018;6.306;2022-08-20T00:19:46;14.68;;;11.55;;
18899;SDS011;9582;52.018;6.306;2022-08-20T00:22:13;12.73;;;10.85;;
18899;SDS011;9582;52.018;6.306;2022-08-20T00:24:39;13.50;;;10.52;;
18899;SDS011;9582;52.018;6.306;2022-08-20T00:27:06;12.82;;;11.07;;
18899;SDS011;9582;52.018;6.306;2022-08-20T00:29:33;15.77;;;11.40;;
18899;SDS011;9582;52.018;6.306;2022-08-20T00:32:00;13.65;;;11.68;;
18899;SDS011;9582;52.018;6.306;2022-08-20T00:34:26;15.45;;;11.65;;
18899;SDS011;9582;52.018;6.306;2022-08-20T00:36:53;14.77;;;11.57;;
18899;SDS011;9582;52.018;6.306;2022-08-20T00:39:20;16.17;;;11.38;;
18899;SDS011;9582;52.018;6.306;2022-08-20T00:41:46;13.50;;;10.90;;
18899;SDS011;9582;52.018;6.306;2022-08-20T00:44:13;14.13;;;11.40;;
18899;SDS011;9582;52.018;6.306;2022-08-20T00:46:44;14.15;;;11.45;;
18899;SDS011;9582;52.018;6.306;2022-08-20T00:49:13;14.00;;;10.73;;
18899;SDS011;9582;52.018;6.306;2022-08-20T00:51:43;11.88;;;10.27;;
18899;SDS011;9582;52.018;6.306;2022-08-20T00:54:12;14.27;;;10.68;;
18899;SDS011;9582;52.018;6.306;2022-08-20T00:56:41;13.63;;;10.73;;
18899;SDS011;9582;52.018;6.306;2022-08-20T00:59:11;14.98;;;11.85;;
18899;SDS011;9582;52.018;6.306;2022-08-20T01:01:42;14.68;;;11.30;;
18899;SDS011;9582;52.018;6.306;2022-08-20T01:04:10;15.15;;;11.95;;
18899;SDS011;9582;52.018;6.306;2022-08-20T01:06:37;13.20;;;11.30;;
18899;SDS011;9582;52.018;6.306;2022-08-20T01:09:04;15.52;;;12.68;;
18899;SDS011;9582;52.018;6.306;2022-08-20T01:11:32;15.70;;;11.68;;
18899;SDS011;9582;52.018;6.306;2022-08-20T01:14:00;17.33;;;12.63;;
18899;SDS011;9582;52.018;6.306;2022-08-20T01:16:39;14.20;;;11.80;;
18899;SDS011;9582;52.018;6.306;2022-08-20T01:19:07;18.00;;;12.38;;
18899;SDS011;9582;52.018;6.306;2022-08-20T01:21:37;16.02;;;12.73;;
18899;SDS011;9582;52.018;6.306;2022-08-20T01:24:05;13.85;;;12.25;;
18899;SDS011;9582;52.018;6.306;2022-08-20T01:26:40;15.40;;;11.95;;
18899;SDS011;9582;52.018;6.306;2022-08-20T01:29:11;17.88;;;13.23;;
18899;SDS011;9582;52.018;6.306;2022-08-20T01:31:40;14.52;;;12.13;;
18899;SDS011;9582;52.018;6.306;2022-08-20T01:34:10;12.60;;;11.30;;
18899;SDS011;9582;52.018;6.306;2022-08-20T01:36:39;12.95;;;11.43;;
18899;SDS011;9582;52.018;6.306;2022-08-20T01:39:11;16.42;;;12.23;;
18899;SDS011;9582;52.018;6.306;2022-08-20T01:41:43;12.88;;;11.27;;
18899;SDS011;9582;52.018;6.306;2022-08-20T01:44:18;16.52;;;11.60;;
18899;SDS011;9582;52.018;6.306;2022-08-20T01:46:46;16.13;;;12.75;;
18899;SDS011;9582;52.018;6.306;2022-08-20T01:49:15;13.70;;;11.88;;
18899;SDS011;9582;52.018;6.306;2022-08-20T01:51:45;17.38;;;12.80;;
18899;SDS011;9582;52.018;6.306;2022-08-20T01:54:13;14.35;;;12.40;;
18899;SDS011;9582;52.018;6.306;2022-08-20T01:56:52;15.77;;;11.98;;
18899;SDS011;9582;52.018;6.306;2022-08-20T01:59:20;17.90;;;13.13;;
18899;SDS011;9582;52.018;6.306;2022-08-20T02:01:47;16.52;;;12.65;;
18899;SDS011;9582;52.018;6.306;2022-08-20T02:04:14;18.10;;;13.27;;
18899;SDS011;9582;52.018;6.306;2022-08-20T02:06:43;14.77;;;12.55;;
18899;SDS011;9582;52.018;6.306;2022-08-20T02:09:13;16.60;;;12.65;;
18899;SDS011;9582;52.018;6.306;2022-08-20T02:11:40;19.13;;;13.43;;
18899;SDS011;9582;52.018;6.306;2022-08-20T02:14:08;16.63;;;12.55;;
18899;SDS011;9582;52.018;6.306;2022-08-20T02:16:37;14.52;;;12.35;;
18899;SDS011;9582;52.018;6.306;2022-08-20T02:19:06;16.75;;;12.65;;
18899;SDS011;9582;52.018;6.306;2022-08-20T02:21:37;14.60;;;11.48;;
18899;SDS011;9582;52.018;6.306;2022-08-20T02:24:06;14.50;;;12.13;;
18899;SDS011;9582;52.018;6.306;2022-08-20T02:26:32;15.50;;;12.50;;
18899;SDS011;9582;52.018;6.306;2022-08-20T02:29:03;13.95;;;11.30;;
18899;SDS011;9582;52.018;6.306;2022-08-20T02:31:34;16.10;;;12.05;;
18899;SDS011;9582;52.018;6.306;2022-08-20T02:34:02;15.23;;;12.32;;
18899;SDS011;9582;52.018;6.306;2022-08-20T02:36:29;18.33;;;13.38;;
18899;SDS011;9582;52.018;6.306;2022-08-20T02:38:56;16.08;;;12.63;;
18899;SDS011;9582;52.018;6.306;2022-08-20T02:41:23;15.27;;;11.50;;
18899;SDS011;9582;52.018;6.306;2022-08-20T02:43:49;15.32;;;11.57;;
18899;SDS011;9582;52.018;6.306;2022-08-20T02:46:16;15.70;;;10.85;;
18899;SDS011;9582;52.018;6.306;2022-08-20T02:48:45;12.57;;;11.20;;
18899;SDS011;9582;52.018;6.306;2022-08-20T02:51:11;16.13;;;11.27;;
18899;SDS011;9582;52.018;6.306;2022-08-20T02:53:38;15.45;;;11.85;;
18899;SDS011;9582;52.018;6.306;2022-08-20T02:56:06;13.90;;;11.45;;
18899;SDS011;9582;52.018;6.306;2022-08-20T02:58:34;12.23;;;10.93;;
18899;SDS011;9582;52.018;6.306;2022-08-20T03:01:01;15.48;;;11.15;;
18899;SDS011;9582;52.018;6.306;2022-08-20T03:03:30;12.98;;;11.60;;
18899;SDS011;9582;52.018;6.306;2022-08-20T03:05:57;12.98;;;11.40;;
18899;SDS011;9582;52.018;6.306;2022-08-20T03:08:25;11.20;;;10.02;;
18899;SDS011;9582;52.018;6.306;2022-08-20T03:10:52;13.52;;;10.88;;
18899;SDS011;9582;52.018;6.306;2022-08-20T03:13:19;15.73;;;11.68;;
18899;SDS011;9582;52.018;6.306;2022-08-20T03:15:47;13.32;;;11.13;;
18899;SDS011;9582;52.018;6.306;2022-08-20T03:18:17;13.90;;;11.10;;
18899;SDS011;9582;52.018;6.306;2022-08-20T03:20:45;13.05;;;11.65;;
18899;SDS011;9582;52.018;6.306;2022-08-20T03:23:13;13.10;;;10.68;;
18899;SDS011;9582;52.018;6.306;2022-08-20T03:25:40;13.25;;;11.52;;
18899;SDS011;9582;52.018;6.306;2022-08-20T03:28:07;17.20;;;12.48;;
18899;SDS011;9582;52.018;6.306;2022-08-20T03:30:35;13.73;;;11.77;;
18899;SDS011;9582;52.018;6.306;2022-08-20T03:33:02;15.77;;;11.77;;
18899;SDS011;9582;52.018;6.306;2022-08-20T03:35:29;14.55;;;11.52;;
18899;SDS011;9582;52.018;6.306;2022-08-20T03:37:57;13.02;;;11.68;;
18899;SDS011;9582;52.018;6.306;2022-08-20T03:40:26;13.88;;;11.38;;
18899;SDS011;9582;52.018;6.306;2022-08-20T03:42:54;13.75;;;12.02;;
18899;SDS011;9582;52.018;6.306;2022-08-20T03:45:23;15.55;;;11.88;;
18899;SDS011;9582;52.018;6.306;2022-08-20T03:47:52;14.70;;;11.75;;
18899;SDS011;9582;52.018;6.306;2022-08-20T03:50:21;15.55;;;10.90;;
18899;SDS011;9582;52.018;6.306;2022-08-20T03:52:49;12.65;;;10.30;;
18899;SDS011;9582;52.018;6.306;2022-08-20T03:55:16;13.27;;;9.65;;
18899;SDS011;9582;52.018;6.306;2022-08-20T03:57:45;11.15;;;9.13;;
18899;SDS011;9582;52.018;6.306;2022-08-20T04:00:13;15.15;;;11.05;;
18899;SDS011;9582;52.018;6.306;2022-08-20T04:02:44;18.88;;;12.82;;
18899;SDS011;9582;52.018;6.306;2022-08-20T04:05:11;16.35;;;12.60;;
18899;SDS011;9582;52.018;6.306;2022-08-20T04:07:38;16.02;;;11.57;;
18899;SDS011;9582;52.018;6.306;2022-08-20T04:10:06;13.15;;;11.75;;
18899;SDS011;9582;52.018;6.306;2022-08-20T04:12:35;15.48;;;12.10;;
18899;SDS011;9582;52.018;6.306;2022-08-20T04:15:07;16.15;;;12.30;;
18899;SDS011;9582;52.018;6.306;2022-08-20T04:17:35;14.30;;;12.13;;
18899;SDS011;9582;52.018;6.306;2022-08-20T04:20:02;16.35;;;12.18;;
18899;SDS011;9582;52.018;6.306;2022-08-20T04:22:29;14.50;;;11.70;;
18899;SDS011;9582;52.018;6.306;2022-08-20T04:24:56;13.10;;;11.20;;
18899;SDS011;9582;52.018;6.306;2022-08-20T04:27:23;18.85;;;13.55;;
18899;SDS011;9582;52.018;6.306;2022-08-20T04:29:49;16.98;;;13.18;;
18899;SDS011;9582;52.018;6.306;2022-08-20T04:32:17;13.93;;;11.88;;
18899;SDS011;9582;52.018;6.306;2022-08-20T04:34:45;12.07;;;9.88;;
18899;SDS011;9582;52.018;6.306;2022-08-20T04:37:11;13.32;;;10.63;;
18899;SDS011;9582;52.018;6.306;2022-08-20T04:39:38;14.88;;;10.80;;
18899;SDS011;9582;52.018;6.306;2022-08-20T04:42:04;11.77;;;9.82;;
18899;SDS011;9582;52.018;6.306;2022-08-20T04:44:30;11.40;;;9.25;;
18899;SDS011;9582;52.018;6.306;2022-08-20T04:46:56;12.13;;;10.65;;
18899;SDS011;9582;52.018;6.306;2022-08-20T04:49:24;11.52;;;10.32;;
18899;SDS011;9582;52.018;6.306;2022-08-20T04:51:52;13.07;;;10.75;;
18899;SDS011;9582;52.018;6.306;2022-08-20T04:54:19;12.65;;;10.60;;
18899;SDS011;9582;52.018;6.306;2022-08-20T04:56:46;14.77;;;11.60;;
18899;SDS011;9582;52.018;6.306;2022-08-20T04:59:12;12.35;;;10.88;;
18899;SDS011;9582;52.018;6.306;2022-08-20T05:01:39;13.23;;;11.85;;
18899;SDS011;9582;52.018;6.306;2022-08-20T05:04:05;14.20;;;12.65;;
18899;SDS011;9582;52.018;6.306;2022-08-20T05:06:33;16.65;;;12.65;;
18899;SDS011;9582;52.018;6.306;2022-08-20T05:08:59;18.65;;;13.77;;
18899;SDS011;9582;52.018;6.306;2022-08-20T05:11:26;19.25;;;13.25;;
18899;SDS011;9582;52.018;6.306;2022-08-20T05:13:54;18.58;;;13.25;;
18899;SDS011;9582;52.018;6.306;2022-08-20T05:16:20;16.95;;;13.05;;
18899;SDS011;9582;52.018;6.306;2022-08-20T05:18:48;13.05;;;11.32;;
18899;SDS011;9582;52.018;6.306;2022-08-20T05:21:16;12.68;;;10.88;;
18899;SDS011;9582;52.018;6.306;2022-08-20T05:23:45;14.75;;;12.43;;
18899;SDS011;9582;52.018;6.306;2022-08-20T05:26:11;14.27;;;11.57;;
18899;SDS011;9582;52.018;6.306;2022-08-20T05:28:39;15.60;;;12.40;;
18899;SDS011;9582;52.018;6.306;2022-08-20T05:31:06;14.40;;;11.13;;
18899;SDS011;9582;52.018;6.306;2022-08-20T05:33:34;14.70;;;11.90;;
18899;SDS011;9582;52.018;6.306;2022-08-20T05:36:02;16.60;;;12.40;;
18899;SDS011;9582;52.018;6.306;2022-08-20T05:38:31;14.10;;;11.65;;
18899;SDS011;9582;52.018;6.306;2022-08-20T05:41:00;15.02;;;12.25;;
18899;SDS011;9582;52.018;6.306;2022-08-20T05:43:27;15.07;;;12.65;;
18899;SDS011;9582;52.018;6.306;2022-08-20T05:45:53;14.90;;;13.13;;
18899;SDS011;9582;52.018;6.306;2022-08-20T05:48:23;24.48;;;14.52;;
18899;SDS011;9582;52.018;6.306;2022-08-20T05:50:50;15.90;;;13.60;;
18899;SDS011;9582;52.018;6.306;2022-08-20T05:53:19;17.05;;;14.02;;
18899;SDS011;9582;52.018;6.306;2022-08-20T05:55:47;18.40;;;13.45;;
18899;SDS011;9582;52.018;6.306;2022-08-20T05:58:16;19.00;;;13.88;;
18899;SDS011;9582;52.018;6.306;2022-08-20T06:00:45;16.27;;;13.48;;
18899;SDS011;9582;52.018;6.306;2022-08-20T06:03:12;17.02;;;13.35;;
18899;SDS011;9582;52.018;6.306;2022-08-20T06:05:56;16.63;;;13.68;;
18899;SDS011;9582;52.018;6.306;2022-08-20T06:08:23;18.27;;;13.98;;
18899;SDS011;9582;52.018;6.306;2022-08-20T06:10:49;16.27;;;13.00;;
18899;SDS011;9582;52.018;6.306;2022-08-20T06:13:17;16.08;;;13.52;;
18899;SDS011;9582;52.018;6.306;2022-08-20T06:15:44;16.33;;;14.15;;
18899;SDS011;9582;52.018;6.306;2022-08-20T06:18:10;17.17;;;14.30;;
18899;SDS011;9582;52.018;6.306;2022-08-20T06:20:37;16.50;;;13.65;;
18899;SDS011;9582;52.018;6.306;2022-08-20T06:23:04;18.70;;;14.68;;
18899;SDS011;9582;52.018;6.306;2022-08-20T06:25:32;17.88;;;13.63;;
18899;SDS011;9582;52.018;6.306;2022-08-20T06:28:00;22.33;;;15.23;;
18899;SDS011;9582;52.018;6.306;2022-08-20T06:30:28;22.23;;;16.77;;
18899;SDS011;9582;52.018;6.306;2022-08-20T06:32:55;21.65;;;16.23;;
18899;SDS011;9582;52.018;6.306;2022-08-20T06:35:22;24.27;;;16.80;;
18899;SDS011;9582;52.018;6.306;2022-08-20T06:37:48;22.63;;;15.23;;
18899;SDS011;9582;52.018;6.306;2022-08-20T06:40:18;17.45;;;14.55;;
18899;SDS011;9582;52.018;6.306;2022-08-20T06:42:47;16.77;;;13.32;;
18899;SDS011;9582;52.018;6.306;2022-08-20T06:45:15;15.80;;;11.80;;
18899;SDS011;9582;52.018;6.306;2022-08-20T06:47:44;18.27;;;13.40;;
18899;SDS011;9582;52.018;6.306;2022-08-20T06:50:13;21.10;;;13.77;;
18899;SDS011;9582;52.018;6.306;2022-08-20T06:52:42;15.38;;;10.50;;
18899;SDS011;9582;52.018;6.306;2022-08-20T06:55:10;12.15;;;9.18;;
18899;SDS011;9582;52.018;6.306;2022-08-20T06:57:37;12.38;;;8.98;;
18899;SDS011;9582;52.018;6.306;2022-08-20T07:00:04;12.00;;;8.65;;
18899;SDS011;9582;52.018;6.306;2022-08-20T07:02:33;16.90;;;9.73;;
18899;SDS011;9582;52.018;6.306;2022-08-20T07:05:02;14.18;;;9.85;;
18899;SDS011;9582;52.018;6.306;2022-08-20T07:07:29;11.18;;;8.15;;
18899;SDS011;9582;52.018;6.306;2022-08-20T07:09:59;9.65;;;6.40;;
18899;SDS011;9582;52.018;6.306;2022-08-20T07:12:26;8.32;;;6.43;;
18899;SDS011;9582;52.018;6.306;2022-08-20T07:14:53;7.90;;;5.40;;
18899;SDS011;9582;52.018;6.306;2022-08-20T07:17:20;10.32;;;5.95;;
18899;SDS011;9582;52.018;6.306;2022-08-20T07:19:46;10.52;;;6.55;;
18899;SDS011;9582;52.018;6.306;2022-08-20T07:22:14;10.52;;;6.30;;
18899;SDS011;9582;52.018;6.306;2022-08-20T07:24:40;6.13;;;5.20;;
18899;SDS011;9582;52.018;6.306;2022-08-20T07:27:07;8.63;;;5.40;;
18899;SDS011;9582;52.018;6.306;2022-08-20T07:29:33;9.60;;;6.20;;
18899;SDS011;9582;52.018;6.306;2022-08-20T07:32:14;9.13;;;6.47;;
18899;SDS011;9582;52.018;6.306;2022-08-20T07:35:02;8.27;;;6.03;;
18899;SDS011;9582;52.018;6.306;2022-08-20T07:37:35;9.00;;;6.28;;
18899;SDS011;9582;52.018;6.306;2022-08-20T07:40:03;13.20;;;7.10;;
18899;SDS011;9582;52.018;6.306;2022-08-20T07:42:31;10.10;;;6.28;;
18899;SDS011;9582;52.018;6.306;2022-08-20T07:44:58;8.73;;;4.50;;
18899;SDS011;9582;52.018;6.306;2022-08-20T07:47:24;7.40;;;3.70;;
18899;SDS011;9582;52.018;6.306;2022-08-20T07:49:51;7.57;;;4.18;;
18899;SDS011;9582;52.018;6.306;2022-08-20T07:52:17;6.80;;;4.05;;
18899;SDS011;9582;52.018;6.306;2022-08-20T07:54:45;8.82;;;3.95;;
18899;SDS011;9582;52.018;6.306;2022-08-20T07:57:12;6.78;;;3.75;;
18899;SDS011;9582;52.018;6.306;2022-08-20T07:59:38;9.88;;;4.10;;
18899;SDS011;9582;52.018;6.306;2022-08-20T08:02:05;6.28;;;4.22;;
18899;SDS011;9582;52.018;6.306;2022-08-20T08:04:31;7.07;;;4.30;;
18899;SDS011;9582;52.018;6.306;2022-08-20T08:06:58;6.55;;;3.80;;
18899;SDS011;9582;52.018;6.306;2022-08-20T08:09:25;7.90;;;5.38;;
18899;SDS011;9582;52.018;6.306;2022-08-20T08:11:55;8.63;;;4.50;;
18899;SDS011;9582;52.018;6.306;2022-08-20T08:14:24;6.90;;;4.55;;
18899;SDS011;9582;52.018;6.306;2022-08-20T08:16:56;8.82;;;4.38;;
18899;SDS011;9582;52.018;6.306;2022-08-20T08:19:24;5.57;;;2.95;;
18899;SDS011;9582;52.018;6.306;2022-08-20T08:21:54;4.45;;;2.90;;
18899;SDS011;9582;52.018;6.306;2022-08-20T08:24:21;5.22;;;2.95;;
18899;SDS011;9582;52.018;6.306;2022-08-20T08:26:47;8.50;;;3.30;;
18899;SDS011;9582;52.018;6.306;2022-08-20T08:29:15;7.75;;;3.33;;
18899;SDS011;9582;52.018;6.306;2022-08-20T08:31:42;6.80;;;3.10;;
18899;SDS011;9582;52.018;6.306;2022-08-20T08:34:08;10.05;;;3.63;;
18899;SDS011;9582;52.018;6.306;2022-08-20T08:36:35;7.00;;;3.97;;
18899;SDS011;9582;52.018;6.306;2022-08-20T08:39:03;8.45;;;4.70;;
18899;SDS011;9582;52.018;6.306;2022-08-20T08:41:30;10.23;;;4.03;;
18899;SDS011;9582;52.018;6.306;2022-08-20T08:44:02;8.48;;;4.57;;
18899;SDS011;9582;52.018;6.306;2022-08-20T08:46:35;8.00;;;4.80;;
18899;SDS011;9582;52.018;6.306;2022-08-20T08:49:05;7.65;;;3.90;;
18899;SDS011;9582;52.018;6.306;2022-08-20T08:51:46;6.93;;;2.90;;
18899;SDS011;9582;52.018;6.306;2022-08-20T08:54:15;10.02;;;3.53;;
18899;SDS011;9582;52.018;6.306;2022-08-20T08:56:45;6.95;;;3.15;;
18899;SDS011;9582;52.018;6.306;2022-08-20T08:59:11;6.35;;;2.90;;
18899;SDS011;9582;52.018;6.306;2022-08-20T09:01:40;9.35;;;3.25;;
18899;SDS011;9582;52.018;6.306;2022-08-20T09:04:10;6.15;;;2.78;;
18899;SDS011;9582;52.018;6.306;2022-08-20T09:06:37;4.85;;;2.20;;
18899;SDS011;9582;52.018;6.306;2022-08-20T09:09:04;7.60;;;2.38;;
18899;SDS011;9582;52.018;6.306;2022-08-20T09:11:43;5.20;;;2.75;;
18899;SDS011;9582;52.018;6.306;2022-08-20T09:14:11;6.07;;;2.25;;
18899;SDS011;9582;52.018;6.306;2022-08-20T09:16:37;5.22;;;2.38;;
18899;SDS011;9582;52.018;6.306;2022-08-20T09:19:05;10.63;;;3.20;;
18899;SDS011;9582;52.018;6.306;2022-08-20T09:21:32;8.10;;;2.85;;
18899;SDS011;9582;52.018;6.306;2022-08-20T09:23:58;8.25;;;3.20;;
18899;SDS011;9582;52.018;6.306;2022-08-20T09:26:25;6.82;;;3.20;;
18899;SDS011;9582;52.018;6.306;2022-08-20T09:28:51;8.15;;;3.30;;
18899;SDS011;9582;52.018;6.306;2022-08-20T09:31:17;8.18;;;3.22;;
18899;SDS011;9582;52.018;6.306;2022-08-20T09:33:45;8.52;;;2.85;;
18899;SDS011;9582;52.018;6.306;2022-08-20T09:36:12;8.63;;;2.78;;
18899;SDS011;9582;52.018;6.306;2022-08-20T09:38:38;5.95;;;2.70;;
18899;SDS011;9582;52.018;6.306;2022-08-20T09:41:05;7.03;;;2.92;;
18899;SDS011;9582;52.018;6.306;2022-08-20T09:43:31;5.85;;;2.60;;
18899;SDS011;9582;52.018;6.306;2022-08-20T09:45:58;7.95;;;3.47;;
18899;SDS011;9582;52.018;6.306;2022-08-20T09:48:24;6.82;;;3.72;;
18899;SDS011;9582;52.018;6.306;2022-08-20T09:50:52;8.93;;;3.78;;
18899;SDS011;9582;52.018;6.306;2022-08-20T09:53:19;10.32;;;3.65;;
18899;SDS011;9582;52.018;6.306;2022-08-20T09:55:48;7.55;;;3.20;;
18899;SDS011;9582;52.018;6.306;2022-08-20T09:58:18;7.85;;;3.17;;
18899;SDS011;9582;52.018;6.306;2022-08-20T10:00:47;5.40;;;2.80;;
18899;SDS011;9582;52.018;6.306;2022-08-20T10:03:13;7.68;;;3.00;;
18899;SDS011;9582;52.018;6.306;2022-08-20T10:05:40;7.75;;;2.40;;
18899;SDS011;9582;52.018;6.306;2022-08-20T10:08:09;6.00;;;2.53;;
18899;SDS011;9582;52.018;6.306;2022-08-20T10:10:37;6.95;;;2.47;;
18899;SDS011;9582;52.018;6.306;2022-08-20T10:13:03;7.43;;;2.63;;
18899;SDS011;9582;52.018;6.306;2022-08-20T10:15:30;6.85;;;2.55;;
18899;SDS011;9582;52.018;6.306;2022-08-20T10:17:57;6.50;;;2.30;;
18899;SDS011;9582;52.018;6.306;2022-08-20T10:20:24;8.15;;;2.50;;
18899;SDS011;9582;52.018;6.306;2022-08-20T10:22:50;8.98;;;2.35;;
18899;SDS011;9582;52.018;6.306;2022-08-20T10:25:19;6.80;;;2.30;;
18899;SDS011;9582;52.018;6.306;2022-08-20T10:27:45;6.78;;;2.38;;
18899;SDS011;9582;52.018;6.306;2022-08-20T10:30:12;6.28;;;2.55;;
18899;SDS011;9582;52.018;6.306;2022-08-20T10:32:38;7.63;;;2.97;;
18899;SDS011;9582;52.018;6.306;2022-08-20T10:35:05;5.22;;;2.35;;
18899;SDS011;9582;52.018;6.306;2022-08-20T10:37:32;7.60;;;2.58;;
18899;SDS011;9582;52.018;6.306;2022-08-20T10:39:59;9.65;;;2.88;;
18899;SDS011;9582;52.018;6.306;2022-08-20T10:42:27;9.80;;;2.70;;
18899;SDS011;9582;52.018;6.306;2022-08-20T10:44:53;8.15;;;2.53;;
18899;SDS011;9582;52.018;6.306;2022-08-20T10:47:20;5.28;;;2.30;;
18899;SDS011;9582;52.018;6.306;2022-08-20T10:49:49;7.05;;;2.45;;
18899;SDS011;9582;52.018;6.306;2022-08-20T10:52:17;8.05;;;2.72;;
18899;SDS011;9582;52.018;6.306;2022-08-20T10:54:44;9.73;;;2.80;;
18899;SDS011;9582;52.018;6.306;2022-08-20T10:57:12;7.35;;;2.78;;
18899;SDS011;9582;52.018;6.306;2022-08-20T10:59:42;5.80;;;2.20;;
18899;SDS011;9582;52.018;6.306;2022-08-20T11:02:10;6.28;;;2.40;;
18899;SDS011;9582;52.018;6.306;2022-08-20T11:04:37;10.65;;;2.58;;
18899;SDS011;9582;52.018;6.306;2022-08-20T11:07:11;6.90;;;2.50;;
18899;SDS011;9582;52.018;6.306;2022-08-20T11:09:40;5.40;;;2.25;;
18899;SDS011;9582;52.018;6.306;2022-08-20T11:12:06;9.95;;;2.58;;
18899;SDS011;9582;52.018;6.306;2022-08-20T11:14:34;7.53;;;2.40;;
18899;SDS011;9582;52.018;6.306;2022-08-20T11:17:02;7.30;;;2.40;;
18899;SDS011;9582;52.018;6.306;2022-08-20T11:19:29;6.75;;;2.40;;
18899;SDS011;9582;52.018;6.306;2022-08-20T11:21:55;8.38;;;2.65;;
18899;SDS011;9582;52.018;6.306;2022-08-20T11:24:22;6.32;;;2.47;;
18899;SDS011;9582;52.018;6.306;2022-08-20T11:26:48;8.38;;;2.50;;
18899;SDS011;9582;52.018;6.306;2022-08-20T11:29:17;5.15;;;2.13;;
18899;SDS011;9582;52.018;6.306;2022-08-20T11:31:44;6.28;;;2.40;;
18899;SDS011;9582;52.018;6.306;2022-08-20T11:34:12;6.70;;;2.72;;
18899;SDS011;9582;52.018;6.306;2022-08-20T11:36:39;7.78;;;3.08;;
18899;SDS011;9582;52.018;6.306;2022-08-20T11:39:05;7.43;;;2.40;;
18899;SDS011;9582;52.018;6.306;2022-08-20T11:41:32;7.57;;;2.60;;
18899;SDS011;9582;52.018;6.306;2022-08-20T11:43:58;5.88;;;2.33;;
18899;SDS011;9582;52.018;6.306;2022-08-20T11:46:25;9.48;;;3.15;;
18899;SDS011;9582;52.018;6.306;2022-08-20T11:48:51;8.23;;;2.58;;
18899;SDS011;9582;52.018;6.306;2022-08-20T11:51:19;7.28;;;2.67;;
18899;SDS011;9582;52.018;6.306;2022-08-20T11:53:45;8.02;;;2.45;;
18899;SDS011;9582;52.018;6.306;2022-08-20T11:56:12;7.57;;;2.30;;
18899;SDS011;9582;52.018;6.306;2022-08-20T11:58:43;9.77;;;2.22;;
18899;SDS011;9582;52.018;6.306;2022-08-20T12:01:10;7.15;;;2.30;;
18899;SDS011;9582;52.018;6.306;2022-08-20T12:03:36;7.77;;;2.40;;
18899;SDS011;9582;52.018;6.306;2022-08-20T12:06:03;7.53;;;2.38;;
18899;SDS011;9582;52.018;6.306;2022-08-20T12:08:31;5.75;;;1.98;;
18899;SDS011;9582;52.018;6.306;2022-08-20T12:10:59;7.00;;;2.83;;
18899;SDS011;9582;52.018;6.306;2022-08-20T12:13:27;6.78;;;2.30;;
18899;SDS011;9582;52.018;6.306;2022-08-20T12:15:55;10.60;;;2.17;;
18899;SDS011;9582;52.018;6.306;2022-08-20T12:18:22;7.25;;;2.35;;
18899;SDS011;9582;52.018;6.306;2022-08-20T12:20:49;4.32;;;1.92;;
18899;SDS011;9582;52.018;6.306;2022-08-20T12:23:15;8.18;;;1.95;;
18899;SDS011;9582;52.018;6.306;2022-08-20T12:25:43;7.43;;;2.30;;
18899;SDS011;9582;52.018;6.306;2022-08-20T12:28:10;6.10;;;2.03;;
18899;SDS011;9582;52.018;6.306;2022-08-20T12:30:38;4.80;;;1.83;;
18899;SDS011;9582;52.018;6.306;2022-08-20T12:33:04;8.25;;;2.17;;
18899;SDS011;9582;52.018;6.306;2022-08-20T12:35:31;6.32;;;2.10;;
18899;SDS011;9582;52.018;6.306;2022-08-20T12:38:00;7.75;;;2.50;;
18899;SDS011;9582;52.018;6.306;2022-08-20T12:40:27;5.32;;;1.85;;
18899;SDS011;9582;52.018;6.306;2022-08-20T12:42:55;6.65;;;2.10;;
18899;SDS011;9582;52.018;6.306;2022-08-20T12:45:22;6.50;;;2.20;;
18899;SDS011;9582;52.018;6.306;2022-08-20T12:47:48;7.72;;;2.40;;
18899;SDS011;9582;52.018;6.306;2022-08-20T12:50:16;3.70;;;1.70;;
18899;SDS011;9582;52.018;6.306;2022-08-20T12:52:43;6.70;;;1.98;;
18899;SDS011;9582;52.018;6.306;2022-08-20T12:55:11;7.32;;;2.17;;
18899;SDS011;9582;52.018;6.306;2022-08-20T12:57:40;5.28;;;1.88;;
18899;SDS011;9582;52.018;6.306;2022-08-20T13:00:10;6.72;;;2.00;;
18899;SDS011;9582;52.018;6.306;2022-08-20T13:02:39;7.78;;;2.20;;
18899;SDS011;9582;52.018;6.306;2022-08-20T13:05:06;6.07;;;2.28;;
18899;SDS011;9582;52.018;6.306;2022-08-20T13:07:34;6.57;;;1.85;;
18899;SDS011;9582;52.018;6.306;2022-08-20T13:10:02;4.70;;;2.10;;
18899;SDS011;9582;52.018;6.306;2022-08-20T13:12:29;6.78;;;2.00;;
18899;SDS011;9582;52.018;6.306;2022-08-20T13:14:56;6.57;;;1.95;;
18899;SDS011;9582;52.018;6.306;2022-08-20T13:17:24;3.42;;;1.65;;
18899;SDS011;9582;52.018;6.306;2022-08-20T13:19:50;5.13;;;2.17;;
18899;SDS011;9582;52.018;6.306;2022-08-20T13:22:17;7.88;;;2.20;;
18899;SDS011;9582;52.018;6.306;2022-08-20T13:24:43;6.30;;;1.80;;
18899;SDS011;9582;52.018;6.306;2022-08-20T13:27:15;4.65;;;1.60;;
18899;SDS011;9582;52.018;6.306;2022-08-20T13:29:45;2.88;;;1.60;;
18899;SDS011;9582;52.018;6.306;2022-08-20T13:32:12;4.78;;;2.17;;
18899;SDS011;9582;52.018;6.306;2022-08-20T13:34:40;8.80;;;2.10;;
18899;SDS011;9582;52.018;6.306;2022-08-20T13:37:10;5.82;;;1.80;;
18899;SDS011;9582;52.018;6.306;2022-08-20T13:39:37;4.32;;;1.55;;
18899;SDS011;9582;52.018;6.306;2022-08-20T13:42:04;6.25;;;1.85;;
18899;SDS011;9582;52.018;6.306;2022-08-20T13:44:32;3.90;;;1.63;;
18899;SDS011;9582;52.018;6.306;2022-08-20T13:46:58;4.28;;;1.90;;
18899;SDS011;9582;52.018;6.306;2022-08-20T13:49:25;4.90;;;1.50;;
18899;SDS011;9582;52.018;6.306;2022-08-20T13:51:52;6.63;;;2.05;;
18899;SDS011;9582;52.018;6.306;2022-08-20T13:54:19;3.03;;;1.48;;
18899;SDS011;9582;52.018;6.306;2022-08-20T13:56:45;6.22;;;1.83;;
18899;SDS011;9582;52.018;6.306;2022-08-20T13:59:12;4.22;;;1.52;;
18899;SDS011;9582;52.018;6.306;2022-08-20T14:01:38;3.97;;;1.73;;
18899;SDS011;9582;52.018;6.306;2022-08-20T14:04:05;4.95;;;1.50;;
18899;SDS011;9582;52.018;6.306;2022-08-20T14:06:31;6.03;;;1.77;;
18899;SDS011;9582;52.018;6.306;2022-08-20T14:08:59;4.38;;;1.67;;
18899;SDS011;9582;52.018;6.306;2022-08-20T14:11:26;4.70;;;1.95;;
18899;SDS011;9582;52.018;6.306;2022-08-20T14:13:53;6.15;;;2.08;;
18899;SDS011;9582;52.018;6.306;2022-08-20T14:16:19;4.88;;;1.70;;
18899;SDS011;9582;52.018;6.306;2022-08-20T14:18:46;4.90;;;1.80;;
18899;SDS011;9582;52.018;6.306;2022-08-20T14:21:12;6.40;;;2.08;;
18899;SDS011;9582;52.018;6.306;2022-08-20T14:23:39;5.75;;;1.73;;
18899;SDS011;9582;52.018;6.306;2022-08-20T14:26:06;5.93;;;1.75;;
18899;SDS011;9582;52.018;6.306;2022-08-20T14:28:33;6.68;;;1.70;;
18899;SDS011;9582;52.018;6.306;2022-08-20T14:30:59;3.97;;;1.55;;
18899;SDS011;9582;52.018;6.306;2022-08-20T14:33:26;7.43;;;1.83;;
18899;SDS011;9582;52.018;6.306;2022-08-20T14:35:52;4.85;;;1.90;;
18899;SDS011;9582;52.018;6.306;2022-08-20T14:38:19;7.20;;;1.92;;
18899;SDS011;9582;52.018;6.306;2022-08-20T14:40:46;5.40;;;1.85;;
18899;SDS011;9582;52.018;6.306;2022-08-20T14:43:15;4.97;;;1.95;;
18899;SDS011;9582;52.018;6.306;2022-08-20T14:45:42;4.15;;;1.95;;
18899;SDS011;9582;52.018;6.306;2022-08-20T14:48:08;4.07;;;1.95;;
18899;SDS011;9582;52.018;6.306;2022-08-20T14:50:35;6.35;;;2.40;;